sensor_id;sensor_type;location;lat;lon;timestamp;pressure;altitude;pressure_sealevel;temperature;humidity
8061;BME280;4073;42.626;25.386;2022-07-23T00:00:14;97382.44;;;20.99;57.54
8061;BME280;4073;42.626;25.386;2022-07-23T00:02:39;97393.91;;;21.05;57.09
8061;BME280;4073;42.626;25.386;2022-07-23T00:05:05;97390.19;;;21.09;57.12
8061;BME280;4073;42.626;25.386;2022-07-23T00:07:31;97393.72;;;21.10;58.02
8061;BME280;4073;42.626;25.386;2022-07-23T00:09:56;97388.63;;;21.08;58.29
8061;BME280;4073;42.626;25.386;2022-07-23T00:12:21;97384.50;;;21.02;58.36
8061;BME280;4073;42.626;25.386;2022-07-23T00:14:47;97382.78;;;20.98;59.32
8061;BME280;4073;42.626;25.386;2022-07-23T00:17:12;97388.09;;;20.94;60.24
8061;BME280;4073;42.626;25.386;2022-07-23T00:19:38;97333.94;;;20.48;60.96
8061;BME280;4073;42.626;25.386;2022-07-23T00:22:03;97385.09;;;20.67;61.39
8061;BME280;4073;42.626;25.386;2022-07-23T00:24:29;97391.09;;;20.72;61.64
8061;BME280;4073;42.626;25.386;2022-07-23T00:26:54;97384.31;;;20.66;62.18
8061;BME280;4073;42.626;25.386;2022-07-23T00:29:20;97377.72;;;20.67;62.78
8061;BME280;4073;42.626;25.386;2022-07-23T00:31:45;97351.94;;;20.53;62.58
8061;BME280;4073;42.626;25.386;2022-07-23T00:34:11;97367.69;;;20.68;62.95
8061;BME280;4073;42.626;25.386;2022-07-23T00:36:36;97375.44;;;20.78;62.92
8061;BME280;4073;42.626;25.386;2022-07-23T00:39:02;97374.94;;;20.76;62.09
8061;BME280;4073;42.626;25.386;2022-07-23T00:41:27;97368.00;;;20.66;62.18
8061;BME280;4073;42.626;25.386;2022-07-23T00:43:53;97366.13;;;20.58;63.51
8061;BME280;4073;42.626;25.386;2022-07-23T00:46:20;97366.66;;;20.52;63.95
8061;BME280;4073;42.626;25.386;2022-07-23T00:48:45;97373.94;;;20.39;64.35
8061;BME280;4073;42.626;25.386;2022-07-23T00:51:11;97362.53;;;20.25;65.14
8061;BME280;4073;42.626;25.386;2022-07-23T00:53:36;97376.75;;;20.22;65.67
8061;BME280;4073;42.626;25.386;2022-07-23T00:56:02;97354.47;;;20.08;66.29
8061;BME280;4073;42.626;25.386;2022-07-23T00:58:28;97368.47;;;20.10;66.68
8061;BME280;4073;42.626;25.386;2022-07-23T01:00:53;97360.53;;;20.05;67.09
8061;BME280;4073;42.626;25.386;2022-07-23T01:03:18;97366.63;;;20.02;66.63
8061;BME280;4073;42.626;25.386;2022-07-23T01:05:44;97367.56;;;20.06;66.37
8061;BME280;4073;42.626;25.386;2022-07-23T01:08:10;97366.09;;;20.08;66.14
8061;BME280;4073;42.626;25.386;2022-07-23T01:10:36;97360.22;;;20.06;66.33
8061;BME280;4073;42.626;25.386;2022-07-23T01:15:27;97355.69;;;20.19;65.55
8061;BME280;4073;42.626;25.386;2022-07-23T01:17:53;97364.91;;;20.26;65.69
8061;BME280;4073;42.626;25.386;2022-07-23T01:20:19;97374.31;;;20.29;65.33
8061;BME280;4073;42.626;25.386;2022-07-23T01:22:45;97364.44;;;20.24;65.29
8061;BME280;4073;42.626;25.386;2022-07-23T01:25:10;97362.06;;;20.23;65.20
8061;BME280;4073;42.626;25.386;2022-07-23T01:27:36;97355.97;;;20.26;65.23
8061;BME280;4073;42.626;25.386;2022-07-23T01:30:02;97363.00;;;20.27;65.15
8061;BME280;4073;42.626;25.386;2022-07-23T01:32:28;97349.28;;;20.23;65.05
8061;BME280;4073;42.626;25.386;2022-07-23T01:34:54;97351.81;;;20.28;65.14
8061;BME280;4073;42.626;25.386;2022-07-23T01:37:19;97350.81;;;20.33;64.87
8061;BME280;4073;42.626;25.386;2022-07-23T01:39:44;97351.75;;;20.37;64.55
8061;BME280;4073;42.626;25.386;2022-07-23T01:42:10;97354.47;;;20.37;64.52
8061;BME280;4073;42.626;25.386;2022-07-23T01:44:35;97346.31;;;20.37;64.78
8061;BME280;4073;42.626;25.386;2022-07-23T01:47:01;97349.34;;;20.35;64.61
8061;BME280;4073;42.626;25.386;2022-07-23T01:49:26;97349.25;;;20.32;64.43
8061;BME280;4073;42.626;25.386;2022-07-23T01:51:51;97339.81;;;20.29;64.60
8061;BME280;4073;42.626;25.386;2022-07-23T01:54:30;97347.69;;;20.22;64.83
8061;BME280;4073;42.626;25.386;2022-07-23T01:56:57;97351.03;;;20.19;64.59
8061;BME280;4073;42.626;25.386;2022-07-23T01:59:23;97350.00;;;20.12;64.92
8061;BME280;4073;42.626;25.386;2022-07-23T02:01:49;97348.56;;;20.06;65.16
8061;BME280;4073;42.626;25.386;2022-07-23T02:04:22;97341.75;;;19.91;65.19
8061;BME280;4073;42.626;25.386;2022-07-23T02:06:48;97354.25;;;19.84;65.72
8061;BME280;4073;42.626;25.386;2022-07-23T02:09:14;97344.28;;;19.67;66.07
8061;BME280;4073;42.626;25.386;2022-07-23T02:11:40;97341.94;;;19.49;66.94
8061;BME280;4073;42.626;25.386;2022-07-23T02:14:06;97344.69;;;19.40;67.31
8061;BME280;4073;42.626;25.386;2022-07-23T02:16:31;97345.31;;;19.37;67.58
8061;BME280;4073;42.626;25.386;2022-07-23T02:18:57;97343.75;;;19.36;67.65
8061;BME280;4073;42.626;25.386;2022-07-23T02:21:22;97342.31;;;19.22;67.97
8061;BME280;4073;42.626;25.386;2022-07-23T02:23:48;97342.78;;;19.24;68.44
8061;BME280;4073;42.626;25.386;2022-07-23T02:26:13;97333.25;;;19.26;68.12
8061;BME280;4073;42.626;25.386;2022-07-23T02:28:39;97335.44;;;19.24;68.04
8061;BME280;4073;42.626;25.386;2022-07-23T02:31:04;97348.06;;;19.12;68.74
8061;BME280;4073;42.626;25.386;2022-07-23T02:33:32;97349.81;;;19.16;69.04
8061;BME280;4073;42.626;25.386;2022-07-23T02:35:58;97337.69;;;19.22;68.92
8061;BME280;4073;42.626;25.386;2022-07-23T02:38:23;97341.84;;;19.37;68.60
8061;BME280;4073;42.626;25.386;2022-07-23T02:40:49;97343.41;;;19.46;67.97
8061;BME280;4073;42.626;25.386;2022-07-23T02:43:14;97348.94;;;19.50;68.17
8061;BME280;4073;42.626;25.386;2022-07-23T02:45:39;97339.84;;;19.54;67.67
8061;BME280;4073;42.626;25.386;2022-07-23T02:48:05;97338.59;;;19.52;67.90
8061;BME280;4073;42.626;25.386;2022-07-23T02:50:30;97332.25;;;19.39;67.97
8061;BME280;4073;42.626;25.386;2022-07-23T02:52:56;97349.13;;;19.45;68.31
8061;BME280;4073;42.626;25.386;2022-07-23T02:55:21;97346.13;;;19.38;68.35
8061;BME280;4073;42.626;25.386;2022-07-23T02:57:47;97347.56;;;19.44;68.52
8061;BME280;4073;42.626;25.386;2022-07-23T03:00:12;97339.59;;;19.39;68.38
8061;BME280;4073;42.626;25.386;2022-07-23T03:02:38;97349.13;;;19.45;68.21
8061;BME280;4073;42.626;25.386;2022-07-23T03:05:04;97353.13;;;19.47;68.00
8061;BME280;4073;42.626;25.386;2022-07-23T03:07:29;97350.91;;;19.41;68.23
8061;BME280;4073;42.626;25.386;2022-07-23T03:09:55;97351.56;;;19.38;68.55
8061;BME280;4073;42.626;25.386;2022-07-23T03:12:20;97355.22;;;19.33;68.44
8061;BME280;4073;42.626;25.386;2022-07-23T03:14:46;97360.50;;;19.30;68.82
8061;BME280;4073;42.626;25.386;2022-07-23T03:17:11;97359.38;;;19.22;68.88
8061;BME280;4073;42.626;25.386;2022-07-23T03:19:37;97364.81;;;19.14;69.51
8061;BME280;4073;42.626;25.386;2022-07-23T03:22:03;97361.47;;;19.17;69.71
8061;BME280;4073;42.626;25.386;2022-07-23T03:24:29;97365.13;;;19.21;69.22
8061;BME280;4073;42.626;25.386;2022-07-23T03:27:13;97366.88;;;19.17;69.28
8061;BME280;4073;42.626;25.386;2022-07-23T03:29:38;97374.22;;;19.08;69.86
8061;BME280;4073;42.626;25.386;2022-07-23T03:32:04;97374.41;;;18.94;70.22
8061;BME280;4073;42.626;25.386;2022-07-23T03:34:29;97369.13;;;18.89;70.45
8061;BME280;4073;42.626;25.386;2022-07-23T03:36:55;97368.31;;;18.89;70.41
8061;BME280;4073;42.626;25.386;2022-07-23T03:39:20;97367.53;;;18.97;70.12
8061;BME280;4073;42.626;25.386;2022-07-23T03:41:46;97368.78;;;19.08;69.55
8061;BME280;4073;42.626;25.386;2022-07-23T03:44:11;97368.66;;;19.13;69.73
8061;BME280;4073;42.626;25.386;2022-07-23T03:46:36;97371.97;;;19.18;69.60
8061;BME280;4073;42.626;25.386;2022-07-23T03:49:02;97370.88;;;19.28;69.10
8061;BME280;4073;42.626;25.386;2022-07-23T03:51:27;97371.50;;;19.33;68.72
8061;BME280;4073;42.626;25.386;2022-07-23T03:53:53;97373.38;;;19.41;68.69
8061;BME280;4073;42.626;25.386;2022-07-23T03:56:19;97372.44;;;19.37;68.62
8061;BME280;4073;42.626;25.386;2022-07-23T03:58:45;97362.41;;;19.38;68.82
8061;BME280;4073;42.626;25.386;2022-07-23T04:01:11;97364.78;;;19.39;68.97
8061;BME280;4073;42.626;25.386;2022-07-23T04:03:37;97361.59;;;19.37;69.42
8061;BME280;4073;42.626;25.386;2022-07-23T04:06:02;97359.38;;;19.31;69.86
8061;BME280;4073;42.626;25.386;2022-07-23T04:08:27;97360.97;;;19.32;70.28
8061;BME280;4073;42.626;25.386;2022-07-23T04:10:53;97367.66;;;19.26;70.96
8061;BME280;4073;42.626;25.386;2022-07-23T04:13:18;97369.59;;;19.34;71.62
8061;BME280;4073;42.626;25.386;2022-07-23T04:15:44;97366.53;;;19.44;71.72
8061;BME280;4073;42.626;25.386;2022-07-23T04:18:09;97364.28;;;19.46;71.61
8061;BME280;4073;42.626;25.386;2022-07-23T04:20:35;97369.19;;;19.61;71.54
8061;BME280;4073;42.626;25.386;2022-07-23T04:23:00;97360.22;;;19.69;71.68
8061;BME280;4073;42.626;25.386;2022-07-23T04:25:25;97363.50;;;19.83;71.69
8061;BME280;4073;42.626;25.386;2022-07-23T04:27:51;97361.69;;;19.95;72.02
8061;BME280;4073;42.626;25.386;2022-07-23T04:30:16;97364.22;;;20.00;71.70
8061;BME280;4073;42.626;25.386;2022-07-23T04:32:42;97371.53;;;20.08;71.42
8061;BME280;4073;42.626;25.386;2022-07-23T04:35:08;97364.34;;;20.12;70.07
8061;BME280;4073;42.626;25.386;2022-07-23T04:37:33;97372.31;;;20.09;69.04
8061;BME280;4073;42.626;25.386;2022-07-23T04:39:58;97370.56;;;20.13;68.64
8061;BME280;4073;42.626;25.386;2022-07-23T04:42:24;97372.75;;;20.19;68.46
8061;BME280;4073;42.626;25.386;2022-07-23T04:44:49;97372.38;;;20.29;67.88
8061;BME280;4073;42.626;25.386;2022-07-23T04:47:15;97368.97;;;20.41;67.70
8061;BME280;4073;42.626;25.386;2022-07-23T04:49:40;97373.16;;;20.59;67.59
8061;BME280;4073;42.626;25.386;2022-07-23T04:52:06;97370.78;;;20.78;67.55
8061;BME280;4073;42.626;25.386;2022-07-23T04:54:31;97375.44;;;20.98;67.57
8061;BME280;4073;42.626;25.386;2022-07-23T04:56:56;97365.22;;;21.16;67.32
8061;BME280;4073;42.626;25.386;2022-07-23T04:59:22;97367.41;;;21.34;66.87
8061;BME280;4073;42.626;25.386;2022-07-23T05:01:47;97360.66;;;21.52;65.66
8061;BME280;4073;42.626;25.386;2022-07-23T05:04:13;97363.84;;;21.66;65.44
8061;BME280;4073;42.626;25.386;2022-07-23T05:06:38;97357.00;;;21.81;64.63
8061;BME280;4073;42.626;25.386;2022-07-23T05:09:04;97371.19;;;21.98;63.96
8061;BME280;4073;42.626;25.386;2022-07-23T05:11:29;97366.63;;;22.14;63.32
8061;BME280;4073;42.626;25.386;2022-07-23T05:13:55;97359.38;;;22.30;63.04
8061;BME280;4073;42.626;25.386;2022-07-23T05:16:20;97360.84;;;22.52;62.34
8061;BME280;4073;42.626;25.386;2022-07-23T05:18:45;97367.59;;;22.70;61.93
8061;BME280;4073;42.626;25.386;2022-07-23T05:21:11;97365.75;;;22.86;61.25
8061;BME280;4073;42.626;25.386;2022-07-23T05:23:36;97362.28;;;23.01;60.62
8061;BME280;4073;42.626;25.386;2022-07-23T05:26:02;97361.97;;;23.18;60.22
8061;BME280;4073;42.626;25.386;2022-07-23T05:28:27;97363.38;;;23.40;59.54
8061;BME280;4073;42.626;25.386;2022-07-23T05:30:53;97363.06;;;23.57;58.70
8061;BME280;4073;42.626;25.386;2022-07-23T05:33:19;97358.78;;;23.71;58.73
8061;BME280;4073;42.626;25.386;2022-07-23T05:35:44;97359.41;;;23.80;57.77
8061;BME280;4073;42.626;25.386;2022-07-23T05:38:10;97350.78;;;23.94;57.48
8061;BME280;4073;42.626;25.386;2022-07-23T05:40:35;97359.59;;;24.18;56.19
8061;BME280;4073;42.626;25.386;2022-07-23T05:43:01;97358.13;;;24.40;55.94
8061;BME280;4073;42.626;25.386;2022-07-23T05:45:26;97352.63;;;24.55;55.11
8061;BME280;4073;42.626;25.386;2022-07-23T05:47:52;97362.13;;;24.77;55.17
8061;BME280;4073;42.626;25.386;2022-07-23T05:50:17;97359.38;;;24.96;54.25
8061;BME280;4073;42.626;25.386;2022-07-23T05:52:43;97359.09;;;25.20;53.40
8061;BME280;4073;42.626;25.386;2022-07-23T05:55:10;97357.31;;;25.47;52.56
8061;BME280;4073;42.626;25.386;2022-07-23T05:57:36;97359.69;;;25.71;52.19
8061;BME280;4073;42.626;25.386;2022-07-23T06:00:04;97351.03;;;25.91;51.26
8061;BME280;4073;42.626;25.386;2022-07-23T06:02:30;97354.16;;;26.12;50.34
8061;BME280;4073;42.626;25.386;2022-07-23T06:04:55;97347.84;;;26.34;49.80
8061;BME280;4073;42.626;25.386;2022-07-23T06:07:20;97352.47;;;26.56;48.55
8061;BME280;4073;42.626;25.386;2022-07-23T06:09:46;97354.00;;;26.80;48.03
8061;BME280;4073;42.626;25.386;2022-07-23T06:12:12;97351.16;;;27.02;46.98
8061;BME280;4073;42.626;25.386;2022-07-23T06:14:38;97355.75;;;27.24;46.36
8061;BME280;4073;42.626;25.386;2022-07-23T06:17:03;97348.91;;;27.41;45.54
8061;BME280;4073;42.626;25.386;2022-07-23T06:19:29;97352.59;;;27.56;45.34
8061;BME280;4073;42.626;25.386;2022-07-23T06:21:54;97347.69;;;27.79;43.82
8061;BME280;4073;42.626;25.386;2022-07-23T06:24:19;97350.34;;;28.08;42.56
8061;BME280;4073;42.626;25.386;2022-07-23T06:26:45;97341.09;;;28.30;42.13
8061;BME280;4073;42.626;25.386;2022-07-23T06:29:10;97341.25;;;28.51;41.22
8061;BME280;4073;42.626;25.386;2022-07-23T06:31:36;97347.28;;;28.74;40.71
8061;BME280;4073;42.626;25.386;2022-07-23T06:34:02;97352.91;;;28.99;39.77
8061;BME280;4073;42.626;25.386;2022-07-23T06:36:28;97340.81;;;29.10;39.38
8061;BME280;4073;42.626;25.386;2022-07-23T06:38:53;97349.91;;;29.32;38.69
8061;BME280;4073;42.626;25.386;2022-07-23T06:41:19;97355.09;;;29.51;38.72
8061;BME280;4073;42.626;25.386;2022-07-23T06:43:44;97345.72;;;29.73;38.61
8061;BME280;4073;42.626;25.386;2022-07-23T06:46:10;97350.09;;;29.99;37.88
8061;BME280;4073;42.626;25.386;2022-07-23T06:48:35;97346.53;;;30.16;37.25
8061;BME280;4073;42.626;25.386;2022-07-23T06:51:02;97339.84;;;30.31;37.31
8061;BME280;4073;42.626;25.386;2022-07-23T06:53:27;97337.88;;;30.31;37.20
8061;BME280;4073;42.626;25.386;2022-07-23T06:55:53;97344.56;;;30.51;36.97
8061;BME280;4073;42.626;25.386;2022-07-23T06:58:18;97342.53;;;30.80;36.37
8061;BME280;4073;42.626;25.386;2022-07-23T07:00:44;97343.63;;;31.07;36.01
8061;BME280;4073;42.626;25.386;2022-07-23T07:03:10;97341.22;;;31.26;35.40
8061;BME280;4073;42.626;25.386;2022-07-23T07:05:35;97337.16;;;31.45;35.54
8061;BME280;4073;42.626;25.386;2022-07-23T07:08:01;97337.00;;;31.69;34.99
8061;BME280;4073;42.626;25.386;2022-07-23T07:10:26;97335.34;;;31.86;34.90
8061;BME280;4073;42.626;25.386;2022-07-23T07:12:52;97340.72;;;32.07;34.07
8061;BME280;4073;42.626;25.386;2022-07-23T07:15:17;97331.09;;;32.22;33.08
8061;BME280;4073;42.626;25.386;2022-07-23T07:17:43;97340.13;;;32.30;32.77
8061;BME280;4073;42.626;25.386;2022-07-23T07:20:09;97331.63;;;32.51;31.91
8061;BME280;4073;42.626;25.386;2022-07-23T07:22:35;97342.03;;;32.77;30.44
8061;BME280;4073;42.626;25.386;2022-07-23T07:25:00;97325.78;;;32.86;30.31
8061;BME280;4073;42.626;25.386;2022-07-23T07:27:26;97325.63;;;32.96;30.31
8061;BME280;4073;42.626;25.386;2022-07-23T07:29:51;97326.44;;;33.27;30.06
8061;BME280;4073;42.626;25.386;2022-07-23T07:32:17;97324.16;;;33.48;29.15
8061;BME280;4073;42.626;25.386;2022-07-23T07:34:42;97330.84;;;33.81;29.18
8061;BME280;4073;42.626;25.386;2022-07-23T07:37:08;97315.03;;;34.04;29.11
8061;BME280;4073;42.626;25.386;2022-07-23T07:39:33;97314.31;;;34.23;27.77
8061;BME280;4073;42.626;25.386;2022-07-23T07:41:58;97315.28;;;34.37;28.03
8061;BME280;4073;42.626;25.386;2022-07-23T07:44:24;97314.63;;;34.52;27.33
8061;BME280;4073;42.626;25.386;2022-07-23T07:46:49;97307.81;;;34.76;27.55
8061;BME280;4073;42.626;25.386;2022-07-23T07:49:15;97304.53;;;34.81;27.73
8061;BME280;4073;42.626;25.386;2022-07-23T07:51:42;97302.28;;;34.96;27.86
8061;BME280;4073;42.626;25.386;2022-07-23T07:54:08;97305.06;;;34.96;27.46
8061;BME280;4073;42.626;25.386;2022-07-23T07:56:33;97295.16;;;35.14;27.17
8061;BME280;4073;42.626;25.386;2022-07-23T07:58:58;97297.41;;;35.19;26.91
8061;BME280;4073;42.626;25.386;2022-07-23T08:01:25;97301.47;;;35.15;26.80
8061;BME280;4073;42.626;25.386;2022-07-23T08:03:50;97302.06;;;35.26;26.72
8061;BME280;4073;42.626;25.386;2022-07-23T08:06:15;97300.00;;;35.65;26.17
8061;BME280;4073;42.626;25.386;2022-07-23T08:08:41;97295.88;;;35.89;25.59
8061;BME280;4073;42.626;25.386;2022-07-23T08:11:06;97294.13;;;35.95;25.68
8061;BME280;4073;42.626;25.386;2022-07-23T08:13:32;97300.72;;;36.17;25.74
8061;BME280;4073;42.626;25.386;2022-07-23T08:15:57;97294.25;;;36.53;25.19
8061;BME280;4073;42.626;25.386;2022-07-23T08:18:22;97292.06;;;36.76;24.65
8061;BME280;4073;42.626;25.386;2022-07-23T08:20:48;97296.69;;;36.95;24.29
8061;BME280;4073;42.626;25.386;2022-07-23T08:23:13;97292.63;;;37.12;24.32
8061;BME280;4073;42.626;25.386;2022-07-23T08:25:41;97288.63;;;37.26;24.29
8061;BME280;4073;42.626;25.386;2022-07-23T08:28:09;97292.22;;;37.26;24.32
8061;BME280;4073;42.626;25.386;2022-07-23T08:30:36;97292.22;;;37.39;23.62
8061;BME280;4073;42.626;25.386;2022-07-23T08:33:04;97291.78;;;37.53;23.36
8061;BME280;4073;42.626;25.386;2022-07-23T08:35:33;97292.72;;;37.62;23.49
8061;BME280;4073;42.626;25.386;2022-07-23T08:38:01;97295.91;;;37.61;23.36
8061;BME280;4073;42.626;25.386;2022-07-23T08:40:29;97288.66;;;37.51;23.46
8061;BME280;4073;42.626;25.386;2022-07-23T08:42:54;97287.91;;;37.75;23.43
8061;BME280;4073;42.626;25.386;2022-07-23T08:45:21;97289.13;;;37.87;22.16
8061;BME280;4073;42.626;25.386;2022-07-23T08:47:57;97294.69;;;37.99;22.37
8061;BME280;4073;42.626;25.386;2022-07-23T08:50:26;97288.88;;;38.19;21.82
8061;BME280;4073;42.626;25.386;2022-07-23T08:52:52;97285.22;;;38.43;21.52
8061;BME280;4073;42.626;25.386;2022-07-23T08:55:19;97279.63;;;38.56;22.11
8061;BME280;4073;42.626;25.386;2022-07-23T08:57:49;97280.25;;;38.73;22.03
8061;BME280;4073;42.626;25.386;2022-07-23T09:00:17;97277.22;;;39.01;21.99
8061;BME280;4073;42.626;25.386;2022-07-23T09:02:44;97276.63;;;39.06;21.51
8061;BME280;4073;42.626;25.386;2022-07-23T09:05:11;97270.00;;;39.13;21.80
8061;BME280;4073;42.626;25.386;2022-07-23T09:07:38;97280.44;;;38.78;20.91
8061;BME280;4073;42.626;25.386;2022-07-23T09:10:23;97275.34;;;38.98;20.99
8061;BME280;4073;42.626;25.386;2022-07-23T09:12:48;97282.03;;;39.31;19.92
8061;BME280;4073;42.626;25.386;2022-07-23T09:15:14;97280.59;;;39.48;18.92
8061;BME280;4073;42.626;25.386;2022-07-23T09:17:41;97277.56;;;39.34;18.48
8061;BME280;4073;42.626;25.386;2022-07-23T09:20:15;97281.44;;;39.58;18.73
8061;BME280;4073;42.626;25.386;2022-07-23T09:22:46;97277.78;;;39.79;17.95
8061;BME280;4073;42.626;25.386;2022-07-23T09:25:14;97278.84;;;40.12;17.53
8061;BME280;4073;42.626;25.386;2022-07-23T09:27:48;97276.56;;;40.37;18.15
8061;BME280;4073;42.626;25.386;2022-07-23T09:30:15;97275.63;;;40.49;18.04
8061;BME280;4073;42.626;25.386;2022-07-23T09:32:41;97279.53;;;40.61;17.25
8061;BME280;4073;42.626;25.386;2022-07-23T09:35:07;97271.19;;;40.03;17.50
8061;BME280;4073;42.626;25.386;2022-07-23T09:37:32;97269.59;;;39.84;17.67
8061;BME280;4073;42.626;25.386;2022-07-23T09:40:06;97259.72;;;39.71;17.83
8061;BME280;4073;42.626;25.386;2022-07-23T09:42:32;97273.00;;;39.88;18.62
8061;BME280;4073;42.626;25.386;2022-07-23T09:44:58;97266.72;;;39.66;18.42
8061;BME280;4073;42.626;25.386;2022-07-23T09:47:30;97266.13;;;39.41;17.67
8061;BME280;4073;42.626;25.386;2022-07-23T09:50:07;97266.66;;;39.57;17.99
8061;BME280;4073;42.626;25.386;2022-07-23T09:52:47;97269.84;;;39.77;17.23
8061;BME280;4073;42.626;25.386;2022-07-23T09:55:14;97267.38;;;39.79;17.07
8061;BME280;4073;42.626;25.386;2022-07-23T09:57:44;97268.69;;;39.96;17.05
8061;BME280;4073;42.626;25.386;2022-07-23T10:00:13;97264.16;;;39.90;17.19
8061;BME280;4073;42.626;25.386;2022-07-23T10:02:40;97261.34;;;39.90;17.58
8061;BME280;4073;42.626;25.386;2022-07-23T10:05:06;97264.34;;;40.04;17.32
8061;BME280;4073;42.626;25.386;2022-07-23T10:07:34;97263.56;;;39.95;17.14
8061;BME280;4073;42.626;25.386;2022-07-23T10:10:03;97252.16;;;39.80;17.59
8061;BME280;4073;42.626;25.386;2022-07-23T10:12:29;97253.13;;;39.86;17.46
8061;BME280;4073;42.626;25.386;2022-07-23T10:15:13;97248.91;;;39.51;16.71
8061;BME280;4073;42.626;25.386;2022-07-23T10:17:39;97252.50;;;39.21;17.24
8061;BME280;4073;42.626;25.386;2022-07-23T10:20:05;97236.81;;;39.33;17.16
8061;BME280;4073;42.626;25.386;2022-07-23T10:22:33;97248.88;;;39.42;17.57
8061;BME280;4073;42.626;25.386;2022-07-23T10:25:21;97248.88;;;39.42;17.42
8061;BME280;4073;42.626;25.386;2022-07-23T10:31:04;97237.78;;;39.30;17.14
8061;BME280;4073;42.626;25.386;2022-07-23T10:36:24;97236.34;;;39.25;17.88
8061;BME280;4073;42.626;25.386;2022-07-23T10:39:17;97242.25;;;39.27;17.73
8061;BME280;4073;42.626;25.386;2022-07-23T10:41:41;97226.03;;;39.13;17.59
8061;BME280;4073;42.626;25.386;2022-07-23T10:47:04;97227.81;;;39.29;17.60
8061;BME280;4073;42.626;25.386;2022-07-23T10:49:39;97228.69;;;39.47;17.00
8061;BME280;4073;42.626;25.386;2022-07-23T10:54:40;97222.59;;;39.40;16.64
8061;BME280;4073;42.626;25.386;2022-07-23T10:57:07;97202.56;;;39.11;17.71
8061;BME280;4073;42.626;25.386;2022-07-23T11:02:48;97213.28;;;38.91;17.72
8061;BME280;4073;42.626;25.386;2022-07-23T11:05:16;97216.88;;;39.13;17.36
8061;BME280;4073;42.626;25.386;2022-07-23T11:10:38;97196.66;;;39.39;17.69
8061;BME280;4073;42.626;25.386;2022-07-23T11:13:40;97194.81;;;39.45;17.43
8061;BME280;4073;42.626;25.386;2022-07-23T11:16:16;97192.31;;;39.47;17.38
8061;BME280;4073;42.626;25.386;2022-07-23T11:32:04;97199.97;;;40.13;16.87
8061;BME280;4073;42.626;25.386;2022-07-23T11:36:59;97192.19;;;40.53;16.65
8061;BME280;4073;42.626;25.386;2022-07-23T11:39:28;97187.69;;;40.38;17.13
8061;BME280;4073;42.626;25.386;2022-07-23T11:41:55;97180.97;;;39.90;17.33
8061;BME280;4073;42.626;25.386;2022-07-23T11:44:39;97173.50;;;39.96;17.58
8061;BME280;4073;42.626;25.386;2022-07-23T11:47:07;97178.63;;;39.89;18.09
8061;BME280;4073;42.626;25.386;2022-07-23T11:49:33;97174.91;;;39.92;17.77
8061;BME280;4073;42.626;25.386;2022-07-23T11:54:32;97168.69;;;40.06;17.81
8061;BME280;4073;42.626;25.386;2022-07-23T11:57:00;97166.84;;;40.12;17.88
8061;BME280;4073;42.626;25.386;2022-07-23T11:59:27;97167.59;;;39.94;18.52
8061;BME280;4073;42.626;25.386;2022-07-23T12:02:02;97176.47;;;40.02;18.44
8061;BME280;4073;42.626;25.386;2022-07-23T12:04:47;97168.00;;;39.75;18.81
8061;BME280;4073;42.626;25.386;2022-07-23T12:09:48;97140.16;;;39.62;18.36
8061;BME280;4073;42.626;25.386;2022-07-23T12:12:14;97152.66;;;39.40;18.96
8061;BME280;4073;42.626;25.386;2022-07-23T12:14:55;97159.56;;;39.17;19.30
8061;BME280;4073;42.626;25.386;2022-07-23T12:17:22;97151.44;;;38.80;19.36
8061;BME280;4073;42.626;25.386;2022-07-23T12:19:52;97159.06;;;38.57;19.60
8061;BME280;4073;42.626;25.386;2022-07-23T12:22:17;97152.88;;;38.63;19.58
8061;BME280;4073;42.626;25.386;2022-07-23T12:25:00;97146.50;;;38.62;18.64
8061;BME280;4073;42.626;25.386;2022-07-23T12:27:26;97143.59;;;38.66;19.12
8061;BME280;4073;42.626;25.386;2022-07-23T12:29:52;97138.66;;;38.70;18.89
8061;BME280;4073;42.626;25.386;2022-07-23T12:32:23;97150.13;;;38.72;18.67
8061;BME280;4073;42.626;25.386;2022-07-23T12:34:51;97144.06;;;38.95;18.24
8061;BME280;4073;42.626;25.386;2022-07-23T12:37:31;97149.03;;;39.21;18.29
8061;BME280;4073;42.626;25.386;2022-07-23T12:39:57;97144.06;;;39.34;18.05
8061;BME280;4073;42.626;25.386;2022-07-23T12:42:23;97146.78;;;39.38;17.94
8061;BME280;4073;42.626;25.386;2022-07-23T12:47:30;97132.38;;;39.75;18.09
8061;BME280;4073;42.626;25.386;2022-07-23T12:49:56;97121.56;;;39.86;17.75
8061;BME280;4073;42.626;25.386;2022-07-23T12:52:21;97127.28;;;39.74;17.22
8061;BME280;4073;42.626;25.386;2022-07-23T12:54:46;97132.84;;;39.65;17.83
8061;BME280;4073;42.626;25.386;2022-07-23T12:57:12;97130.53;;;39.24;17.75
8061;BME280;4073;42.626;25.386;2022-07-23T12:59:37;97127.19;;;39.07;17.86
8061;BME280;4073;42.626;25.386;2022-07-23T13:02:03;97123.78;;;39.03;17.76
8061;BME280;4073;42.626;25.386;2022-07-23T13:04:29;97116.91;;;38.95;17.72
8061;BME280;4073;42.626;25.386;2022-07-23T13:06:58;97122.56;;;39.04;17.78
8061;BME280;4073;42.626;25.386;2022-07-23T13:09:26;97125.16;;;38.99;17.95
8061;BME280;4073;42.626;25.386;2022-07-23T13:11:53;97121.72;;;38.95;17.91
8061;BME280;4073;42.626;25.386;2022-07-23T13:14:21;97116.19;;;38.82;17.43
8061;BME280;4073;42.626;25.386;2022-07-23T13:16:48;97116.13;;;38.64;17.04
8061;BME280;4073;42.626;25.386;2022-07-23T13:19:14;97109.66;;;38.76;17.08
8061;BME280;4073;42.626;25.386;2022-07-23T13:21:40;97111.25;;;38.86;17.82
8061;BME280;4073;42.626;25.386;2022-07-23T13:24:07;97104.91;;;38.86;17.85
8061;BME280;4073;42.626;25.386;2022-07-23T13:26:33;97112.94;;;38.84;17.87
8061;BME280;4073;42.626;25.386;2022-07-23T13:28:59;97114.66;;;38.81;17.43
8061;BME280;4073;42.626;25.386;2022-07-23T13:31:25;97101.91;;;38.80;17.81
8061;BME280;4073;42.626;25.386;2022-07-23T13:33:50;97111.53;;;38.79;17.56
8061;BME280;4073;42.626;25.386;2022-07-23T13:36:16;97113.53;;;38.79;17.24
8061;BME280;4073;42.626;25.386;2022-07-23T13:38:41;97101.25;;;38.76;17.81
8061;BME280;4073;42.626;25.386;2022-07-23T13:41:07;97108.47;;;38.55;17.62
8061;BME280;4073;42.626;25.386;2022-07-23T13:43:33;97103.81;;;38.61;17.59
8061;BME280;4073;42.626;25.386;2022-07-23T13:45:59;97110.53;;;38.64;17.76
8061;BME280;4073;42.626;25.386;2022-07-23T13:48:25;97116.69;;;38.37;17.23
8061;BME280;4073;42.626;25.386;2022-07-23T13:50:51;97107.28;;;38.44;18.03